Sider Lijun C — 2CTU4 — position and weather

sailwx.info

Track history (hours):
 
Tides and Currents Weather Stations Pressure Air Temp Water Temp Dewpoint Dewpoint Depression Visibility Wind Speed Wind Dir Waves Ship Positions

Sider Lijun C

Last reported at 2017-Nov-25 03:59 UTC. Time now 2017-Nov-25 04:20 UTC.
Position N 43°32' W 001°30'.

Length 108 m; draft 4 m.

Type: Cargo ship. MMSI: 235075699.

Date/timePositionNaut miles runAvg speedWind from/ knotsBaromVisibWave heightAir tempDewpointWater temp
2017-Nov-25 03:59N 43°32' W 001°30'0 0.0
2017-Nov-25 03:29N 43°32' W 001°30'0 0.0
2017-Nov-25 02:59N 43°32' W 001°30'0 0.0
2017-Nov-25 02:29N 43°32' W 001°30'0 0.0
2017-Nov-25 01:59N 43°32' W 001°30'0 0.0
2017-Nov-25 01:29N 43°32' W 001°30'0 0.0
2017-Nov-25 00:59N 43°32' W 001°30'0 0.0
2017-Nov-25 00:29N 43°32' W 001°30'0 0.0
2017-Nov-24 23:59N 43°32' W 001°30'0 0.0
2017-Nov-24 23:29N 43°32' W 001°30'0 0.0
2017-Nov-24 22:59N 43°32' W 001°30'0 0.0
2017-Nov-24 22:29N 43°32' W 001°30'0 0.0
2017-Nov-24 21:59N 43°32' W 001°30'0 0.0
2017-Nov-24 21:29N 43°32' W 001°30'0 0.0
2017-Nov-24 20:59N 43°32' W 001°30'2 4.1
2017-Nov-24 20:31N 43°32' W 001°33'611.5
2017-Nov-24 20:00N 43°32' W 001°41'612.1
2017-Nov-24 19:30N 43°32' W 001°49'612.3
2017-Nov-24 19:01N 43°33' W 001°57'612.1
2017-Nov-24 18:30N 43°33' W 002°06'612.0
2017-Nov-24 18:01N 43°33' W 002°14'612.2
2017-Nov-24 17:30N 43°33' W 002°22'612.4
2017-Nov-24 17:00N 43°34' W 002°31'612.4
2017-Nov-24 16:31N 43°35' W 002°39'612.3
2017-Nov-24 16:00N 43°35' W 002°48'612.4
2017-Nov-24 15:30N 43°35' W 002°56'612.4
2017-Nov-24 15:00N 43°36' W 003°05'612.5
2017-Nov-24 14:30N 43°36' W 003°14'612.3
2017-Nov-24 14:00N 43°37' W 003°22'612.1
2017-Nov-24 13:30N 43°37' W 003°30'612.8
2017-Nov-24 13:00N 43°37' W 003°39'612.6
2017-Nov-24 12:30N 43°37' W 003°48'612.2
2017-Nov-24 12:00N 43°37' W 003°56'612.4
2017-Nov-24 11:30N 43°37' W 004°05'612.5
2017-Nov-24 11:00N 43°37' W 004°14'612.5
2017-Nov-24 10:30N 43°38' W 004°22'2212.4
2017-Nov-24 08:46N 43°41' W 004°52'312.6
2017-Nov-24 08:30N 43°41' W 004°56'812.6
2017-Nov-24 07:53N 43°43' W 005°07'512.6
2017-Nov-24 07:28N 43°43' W 005°14'612.6
2017-Nov-24 07:00N 43°44' W 005°22'612.4
2017-Nov-24 06:30N 43°44' W 005°31'1112.7
2017-Nov-24 05:37N 43°45' W 005°46'212.5
2017-Nov-24 05:29N 43°46' W 005°48'612.2
2017-Nov-24 04:58N 43°46' W 005°57'611.9
2017-Nov-24 04:26N 43°46' W 006°06'512.5
2017-Nov-24 04:00N 43°46' W 006°13'712.5
2017-Nov-24 03:27N 43°46' W 006°23'3212.2
2017-Nov-24 00:47N 43°49' W 007°08'312.0
2017-Nov-24 00:31N 43°49' W 007°12'612.1
2017-Nov-24 00:00N 43°50' W 007°21'612.1
2017-Nov-23 23:30N 43°51' W 007°29'712.8
2017-Nov-23 23:00N 43°51' W 007°38'1212.4
2017-Nov-23 22:01N 43°50' W 007°55'012.1
2017-Nov-23 21:59N 43°50' W 007°55'5 0.2
2017-Nov-23 00:56N 43°50' W 008°02'4 6.9
2017-Nov-23 00:25N 43°51' W 007°57'3 6.9
2017-Nov-23 00:00N 43°51' W 007°53'4 7.0
2017-Nov-22 23:25N 43°51' W 007°48'3 6.9
2017-Nov-22 23:00N 43°51' W 007°44'3 6.7
2017-Nov-22 22:30N 43°51' W 007°39'4 7.6
2017-Nov-22 22:00N 43°51' W 007°34'4 8.4
2017-Nov-22 21:30N 43°51' W 007°28'4 8.9
2017-Nov-22 21:00N 43°51' W 007°22'4 8.5
2017-Nov-22 20:30N 43°51' W 007°16'  
2017-Nov-19 21:22N 43°47' W 007°08'3 7.7
2017-Nov-19 21:00N 43°47' W 007°12'4 7.9
2017-Nov-19 20:30N 43°48' W 007°17'4 7.9
2017-Nov-19 20:01N 43°48' W 007°23'4 7.8
2017-Nov-19 19:31N 43°49' W 007°28'4 7.7
2017-Nov-19 19:00N 43°49' W 007°34'4 8.0
2017-Nov-19 18:30N 43°50' W 007°39'7 8.0
2017-Nov-19 17:40N 43°47' W 007°47'4 0.2
2017-Nov-19 00:02N 43°44' W 007°52'0 1.5
2017-Nov-18 23:48N 43°44' W 007°51'1 2.0
2017-Nov-18 23:04N 43°45' W 007°50'1 6.8
2017-Nov-18 22:59N 43°46' W 007°50'4 8.2
2017-Nov-18 22:30N 43°49' W 007°54'7 0.3
2017-Nov-18 02:17N 43°50' W 008°03'3 9.5
2017-Nov-18 02:00N 43°52' W 007°60'7 9.8
2017-Nov-18 01:16N 43°53' W 007°50'310.7
2017-Nov-18 01:00N 43°53' W 007°46'510.4
2017-Nov-18 00:31N 43°52' W 007°39'5 9.9
2017-Nov-18 00:00N 43°52' W 007°32'5 9.1
2017-Nov-17 23:30N 43°51' W 007°26'5 9.7
2017-Nov-17 23:00N 43°51' W 007°19'5110.3
2017-Nov-17 18:05N 43°47' W 006°09'110.3
2017-Nov-17 17:58N 43°47' W 006°08'510.4
2017-Nov-17 17:26N 43°46' W 006°00'510.9
2017-Nov-17 16:59N 43°46' W 005°53'510.3
2017-Nov-17 16:31N 43°46' W 005°47'510.1
2017-Nov-17 16:00N 43°45' W 005°40'510.1
2017-Nov-17 15:31N 43°45' W 005°33'510.1
2017-Nov-17 15:00N 43°44' W 005°26'5 9.9
2017-Nov-17 14:31N 43°44' W 005°19'510.1
2017-Nov-17 14:00N 43°43' W 005°12'510.0
2017-Nov-17 13:29N 43°42' W 005°05'5 9.6
2017-Nov-17 13:00N 43°42' W 004°58'15 9.8
2017-Nov-17 11:29N 43°41' W 004°38'6 9.8
2017-Nov-17 10:52N 43°40' W 004°30'4 9.9
2017-Nov-17 10:28N 43°40' W 004°24'510.0
2017-Nov-17 10:01N 43°40' W 004°18'5 9.9
2017-Nov-17 09:31N 43°39' W 004°11'5 9.8
2017-Nov-17 09:01N 43°39' W 004°04'510.0
2017-Nov-17 08:31N 43°38' W 003°57'510.0
2017-Nov-17 08:01N 43°38' W 003°51'5 9.9
2017-Nov-17 07:31N 43°38' W 003°44'5 9.6
2017-Nov-17 07:01N 43°38' W 003°37'5 9.9
2017-Nov-17 06:31N 43°37' W 003°30'3 6.3
2017-Nov-17 06:01N 43°37' W 003°26'3 5.7
2017-Nov-17 05:31N 43°36' W 003°22'5 9.8
2017-Nov-17 05:01N 43°36' W 003°15'5 9.7
2017-Nov-17 04:31N 43°36' W 003°09'5 9.7
2017-Nov-17 04:01N 43°35' W 003°02'5 9.6
2017-Nov-17 03:31N 43°35' W 002°55'5 9.7
2017-Nov-17 03:01N 43°34' W 002°49'5 9.6
2017-Nov-17 02:31N 43°34' W 002°42'5 9.5
2017-Nov-17 02:01N 43°34' W 002°35'5 9.5
2017-Nov-17 01:31N 43°33' W 002°29'5 9.7
2017-Nov-17 01:01N 43°33' W 002°22'5 9.6
2017-Nov-17 00:30N 43°33' W 002°16'5 9.6
2017-Nov-17 00:01N 43°33' W 002°09'5 9.7
2017-Nov-16 23:31N 43°32' W 002°02'5 9.6
2017-Nov-16 23:01N 43°32' W 001°56'2 3.8
2017-Nov-16 22:31N 43°32' W 001°53'510.4
2017-Nov-16 22:01N 43°32' W 001°46'510.4
2017-Nov-16 21:31N 43°32' W 001°39'510.1
2017-Nov-16 21:01N 43°32' W 001°32'1 2.6
2017-Nov-16 20:31N 43°32' W 001°30'0 0.0
2017-Nov-16 20:01N 43°32' W 001°30'0 0.0
2017-Nov-16 19:30N 43°32' W 001°30'0 0.0
2017-Nov-16 19:01N 43°32' W 001°30'0 0.0
2017-Nov-16 18:31N 43°32' W 001°30'0 0.0
2017-Nov-16 18:01N 43°32' W 001°30'0 0.0
2017-Nov-16 17:30N 43°32' W 001°30'0 0.0
2017-Nov-16 17:01N 43°32' W 001°30'0 0.0
2017-Nov-16 16:31N 43°32' W 001°30'0 0.0
2017-Nov-16 16:01N 43°32' W 001°30'0 0.0
2017-Nov-16 15:31N 43°32' W 001°30'0 0.0
2017-Nov-16 15:00N 43°32' W 001°30'0 0.0
2017-Nov-16 14:30N 43°32' W 001°30'0 0.0
2017-Nov-16 14:01N 43°32' W 001°30'0 0.0
2017-Nov-16 13:31N 43°32' W 001°30'0 0.0
2017-Nov-16 13:01N 43°32' W 001°30'0 0.0
2017-Nov-16 12:31N 43°32' W 001°30'0 0.0
2017-Nov-16 12:01N 43°32' W 001°30'0 0.0
2017-Nov-16 11:30N 43°32' W 001°30'0 0.0
2017-Nov-16 11:01N 43°32' W 001°30'0 0.0
2017-Nov-16 10:30N 43°32' W 001°30'0 0.0
2017-Nov-16 10:01N 43°32' W 001°30'0 0.0
2017-Nov-16 09:31N 43°32' W 001°30'0 0.0
2017-Nov-16 09:01N 43°32' W 001°30'0 0.0
2017-Nov-16 08:31N 43°32' W 001°30'0 0.0
2017-Nov-16 08:01N 43°32' W 001°30'0 0.0
2017-Nov-16 07:30N 43°32' W 001°30'0 0.0
2017-Nov-16 07:01N 43°32' W 001°30'0 0.0
2017-Nov-16 06:31N 43°32' W 001°30'0 0.0
2017-Nov-16 05:58N 43°32' W 001°30'0 0.0
2017-Nov-16 05:28N 43°32' W 001°30'0 0.0
2017-Nov-16 05:01N 43°32' W 001°30'0 0.0
2017-Nov-16 04:28N 43°32' W 001°30'0 0.0
2017-Nov-16 04:01N 43°32' W 001°30'0 0.0
2017-Nov-16 03:31N 43°32' W 001°30'0 0.0
2017-Nov-16 03:01N 43°32' W 001°30'0 0.0
2017-Nov-16 02:31N 43°32' W 001°30'0 0.0
2017-Nov-16 02:01N 43°32' W 001°30'0 0.0
2017-Nov-16 01:31N 43°32' W 001°30'0 0.0
2017-Nov-16 01:01N 43°32' W 001°30'0 0.0
2017-Nov-16 00:31N 43°32' W 001°30'0 0.0
2017-Nov-16 00:01N 43°32' W 001°30'0 0.0
2017-Nov-15 23:28N 43°32' W 001°30'0 0.0
2017-Nov-15 22:58N 43°32' W 001°30'0 0.0
2017-Nov-15 22:31N 43°32' W 001°30'0 0.0
2017-Nov-15 21:58N 43°32' W 001°30'0 0.0
2017-Nov-15 21:31N 43°32' W 001°30'0 0.0
2017-Nov-15 20:55N 43°32' W 001°30'0 0.0
2017-Nov-15 20:28N 43°32' W 001°30'0 0.0
2017-Nov-15 19:58N 43°32' W 001°30'0 0.0
2017-Nov-15 19:28N 43°32' W 001°30'0 0.0
2017-Nov-15 18:58N 43°32' W 001°30'0 0.0
2017-Nov-15 18:25N 43°32' W 001°30'0 0.0
2017-Nov-15 17:58N 43°32' W 001°30'0 0.0
2017-Nov-15 17:28N 43°32' W 001°30'0 0.0
2017-Nov-15 16:58N 43°32' W 001°30'0 0.0
2017-Nov-15 16:28N 43°32' W 001°30'0 0.0
2017-Nov-15 15:58N 43°32' W 001°30'0 0.0
2017-Nov-15 15:28N 43°32' W 001°30'0 0.0
2017-Nov-15 14:58N 43°32' W 001°30'0 0.2
2017-Nov-15 14:30N 43°32' W 001°30'3 5.9
2017-Nov-15 14:00N 43°33' W 001°33'1 1.6
2017-Nov-15 13:30N 43°34' W 001°33'0 0.0
2017-Nov-15 13:00N 43°34' W 001°33'0 0.0
2017-Nov-15 12:30N 43°34' W 001°33'0 0.0
2017-Nov-15 12:01N 43°34' W 001°33'0 0.0
2017-Nov-15 11:30N 43°34' W 001°33'0 0.2
2017-Nov-15 11:01N 43°34' W 001°33'0 0.1
2017-Nov-15 10:30N 43°34' W 001°33'4 8.2
2017-Nov-15 10:00N 43°33' W 001°39'511.0
2017-Nov-15 09:30N 43°33' W 001°46'510.8
2017-Nov-15 09:00N 43°33' W 001°54'510.7
2017-Nov-15 08:30N 43°33' W 002°01'510.9
2017-Nov-15 08:00N 43°34' W 002°09'511.0
2017-Nov-15 07:30N 43°35' W 002°16'510.9
2017-Nov-15 07:00N 43°36' W 002°23'510.7
2017-Nov-15 06:30N 43°37' W 002°31'510.4
2017-Nov-15 06:00N 43°38' W 002°38'510.1
2017-Nov-15 05:30N 43°39' W 002°45'510.2
2017-Nov-15 05:00N 43°40' W 002°52'1010.3
2017-Nov-15 04:00N 43°42' W 003°06'  
Track history (hours):
 
Tides and Currents Weather Stations Pressure Air Temp Water Temp Dewpoint Dewpoint Depression Visibility Wind Speed Wind Dir Waves Ship Positions

Sider Lijun C

Last reported at 2017-Nov-25 03:59 UTC. Time now 2017-Nov-25 04:20 UTC.
Position N 43°32' W 001°30'.

Length 108 m; draft 4 m.

Type: Cargo ship. MMSI: 235075699.

Date/timePositionNaut miles runAvg speedWind from/ knotsBaromVisibWave heightAir tempDewpointWater temp
2017-Nov-25 03:59N 43°32' W 001°30'0 0.0
2017-Nov-25 03:29N 43°32' W 001°30'0 0.0
2017-Nov-25 02:59N 43°32' W 001°30'0 0.0
2017-Nov-25 02:29N 43°32' W 001°30'0 0.0
2017-Nov-25 01:59N 43°32' W 001°30'0 0.0
2017-Nov-25 01:29N 43°32' W 001°30'0 0.0
2017-Nov-25 00:59N 43°32' W 001°30'0 0.0
2017-Nov-25 00:29N 43°32' W 001°30'0 0.0
2017-Nov-24 23:59N 43°32' W 001°30'0 0.0
2017-Nov-24 23:29N 43°32' W 001°30'0 0.0
2017-Nov-24 22:59N 43°32' W 001°30'0 0.0
2017-Nov-24 22:29N 43°32' W 001°30'0 0.0
2017-Nov-24 21:59N 43°32' W 001°30'0 0.0
2017-Nov-24 21:29N 43°32' W 001°30'0 0.0
2017-Nov-24 20:59N 43°32' W 001°30'2 4.1
2017-Nov-24 20:31N 43°32' W 001°33'611.5
2017-Nov-24 20:00N 43°32' W 001°41'612.1
2017-Nov-24 19:30N 43°32' W 001°49'612.3
2017-Nov-24 19:01N 43°33' W 001°57'612.1
2017-Nov-24 18:30N 43°33' W 002°06'612.0
2017-Nov-24 18:01N 43°33' W 002°14'612.2
2017-Nov-24 17:30N 43°33' W 002°22'612.4
2017-Nov-24 17:00N 43°34' W 002°31'612.4
2017-Nov-24 16:31N 43°35' W 002°39'612.3
2017-Nov-24 16:00N 43°35' W 002°48'612.4
2017-Nov-24 15:30N 43°35' W 002°56'612.4
2017-Nov-24 15:00N 43°36' W 003°05'612.5
2017-Nov-24 14:30N 43°36' W 003°14'612.3
2017-Nov-24 14:00N 43°37' W 003°22'612.1
2017-Nov-24 13:30N 43°37' W 003°30'612.8
2017-Nov-24 13:00N 43°37' W 003°39'612.6
2017-Nov-24 12:30N 43°37' W 003°48'612.2
2017-Nov-24 12:00N 43°37' W 003°56'612.4
2017-Nov-24 11:30N 43°37' W 004°05'612.5
2017-Nov-24 11:00N 43°37' W 004°14'612.5
2017-Nov-24 10:30N 43°38' W 004°22'2212.4
2017-Nov-24 08:46N 43°41' W 004°52'312.6
2017-Nov-24 08:30N 43°41' W 004°56'812.6
2017-Nov-24 07:53N 43°43' W 005°07'512.6
2017-Nov-24 07:28N 43°43' W 005°14'612.6
2017-Nov-24 07:00N 43°44' W 005°22'612.4
2017-Nov-24 06:30N 43°44' W 005°31'1112.7
2017-Nov-24 05:37N 43°45' W 005°46'212.5
2017-Nov-24 05:29N 43°46' W 005°48'612.2
2017-Nov-24 04:58N 43°46' W 005°57'611.9
2017-Nov-24 04:26N 43°46' W 006°06'512.5
2017-Nov-24 04:00N 43°46' W 006°13'712.5
2017-Nov-24 03:27N 43°46' W 006°23'3212.2
2017-Nov-24 00:47N 43°49' W 007°08'312.0
2017-Nov-24 00:31N 43°49' W 007°12'612.1
2017-Nov-24 00:00N 43°50' W 007°21'612.1
2017-Nov-23 23:30N 43°51' W 007°29'712.8
2017-Nov-23 23:00N 43°51' W 007°38'1212.4
2017-Nov-23 22:01N 43°50' W 007°55'012.1
2017-Nov-23 21:59N 43°50' W 007°55'5 0.2
2017-Nov-23 00:56N 43°50' W 008°02'4 6.9
2017-Nov-23 00:25N 43°51' W 007°57'3 6.9
2017-Nov-23 00:00N 43°51' W 007°53'4 7.0
2017-Nov-22 23:25N 43°51' W 007°48'3 6.9
2017-Nov-22 23:00N 43°51' W 007°44'3 6.7
2017-Nov-22 22:30N 43°51' W 007°39'4 7.6
2017-Nov-22 22:00N 43°51' W 007°34'4 8.4
2017-Nov-22 21:30N 43°51' W 007°28'4 8.9
2017-Nov-22 21:00N 43°51' W 007°22'4 8.5
2017-Nov-22 20:30N 43°51' W 007°16'  
2017-Nov-19 21:22N 43°47' W 007°08'3 7.7
2017-Nov-19 21:00N 43°47' W 007°12'4 7.9
2017-Nov-19 20:30N 43°48' W 007°17'4 7.9
2017-Nov-19 20:01N 43°48' W 007°23'4 7.8
2017-Nov-19 19:31N 43°49' W 007°28'4 7.7
2017-Nov-19 19:00N 43°49' W 007°34'4 8.0
2017-Nov-19 18:30N 43°50' W 007°39'7 8.0
2017-Nov-19 17:40N 43°47' W 007°47'4 0.2
2017-Nov-19 00:02N 43°44' W 007°52'0 1.5
2017-Nov-18 23:48N 43°44' W 007°51'1 2.0
2017-Nov-18 23:04N 43°45' W 007°50'1 6.8
2017-Nov-18 22:59N 43°46' W 007°50'4 8.2
2017-Nov-18 22:30N 43°49' W 007°54'7 0.3
2017-Nov-18 02:17N 43°50' W 008°03'3 9.5
2017-Nov-18 02:00N 43°52' W 007°60'7 9.8
2017-Nov-18 01:16N 43°53' W 007°50'310.7
2017-Nov-18 01:00N 43°53' W 007°46'510.4
2017-Nov-18 00:31N 43°52' W 007°39'5 9.9
2017-Nov-18 00:00N 43°52' W 007°32'5 9.1
2017-Nov-17 23:30N 43°51' W 007°26'5 9.7
2017-Nov-17 23:00N 43°51' W 007°19'5110.3
2017-Nov-17 18:05N 43°47' W 006°09'110.3
2017-Nov-17 17:58N 43°47' W 006°08'510.4
2017-Nov-17 17:26N 43°46' W 006°00'510.9
2017-Nov-17 16:59N 43°46' W 005°53'510.3
2017-Nov-17 16:31N 43°46' W 005°47'510.1
2017-Nov-17 16:00N 43°45' W 005°40'510.1
2017-Nov-17 15:31N 43°45' W 005°33'510.1
2017-Nov-17 15:00N 43°44' W 005°26'5 9.9
2017-Nov-17 14:31N 43°44' W 005°19'510.1
2017-Nov-17 14:00N 43°43' W 005°12'510.0
2017-Nov-17 13:29N 43°42' W 005°05'5 9.6
2017-Nov-17 13:00N 43°42' W 004°58'15 9.8
2017-Nov-17 11:29N 43°41' W 004°38'6 9.8
2017-Nov-17 10:52N 43°40' W 004°30'4 9.9
2017-Nov-17 10:28N 43°40' W 004°24'510.0
2017-Nov-17 10:01N 43°40' W 004°18'5 9.9
2017-Nov-17 09:31N 43°39' W 004°11'5 9.8
2017-Nov-17 09:01N 43°39' W 004°04'510.0
2017-Nov-17 08:31N 43°38' W 003°57'510.0
2017-Nov-17 08:01N 43°38' W 003°51'5 9.9
2017-Nov-17 07:31N 43°38' W 003°44'5 9.6
2017-Nov-17 07:01N 43°38' W 003°37'5 9.9
2017-Nov-17 06:31N 43°37' W 003°30'3 6.3
2017-Nov-17 06:01N 43°37' W 003°26'3 5.7
2017-Nov-17 05:31N 43°36' W 003°22'5 9.8
2017-Nov-17 05:01N 43°36' W 003°15'5 9.7
2017-Nov-17 04:31N 43°36' W 003°09'5 9.7
2017-Nov-17 04:01N 43°35' W 003°02'5 9.6
2017-Nov-17 03:31N 43°35' W 002°55'5 9.7
2017-Nov-17 03:01N 43°34' W 002°49'5 9.6
2017-Nov-17 02:31N 43°34' W 002°42'5 9.5
2017-Nov-17 02:01N 43°34' W 002°35'5 9.5
2017-Nov-17 01:31N 43°33' W 002°29'5 9.7
2017-Nov-17 01:01N 43°33' W 002°22'5 9.6
2017-Nov-17 00:30N 43°33' W 002°16'5 9.6
2017-Nov-17 00:01N 43°33' W 002°09'5 9.7
2017-Nov-16 23:31N 43°32' W 002°02'5 9.6
2017-Nov-16 23:01N 43°32' W 001°56'2 3.8
2017-Nov-16 22:31N 43°32' W 001°53'510.4
2017-Nov-16 22:01N 43°32' W 001°46'510.4
2017-Nov-16 21:31N 43°32' W 001°39'510.1
2017-Nov-16 21:01N 43°32' W 001°32'1 2.6
2017-Nov-16 20:31N 43°32' W 001°30'0 0.0
2017-Nov-16 20:01N 43°32' W 001°30'0 0.0
2017-Nov-16 19:30N 43°32' W 001°30'0 0.0
2017-Nov-16 19:01N 43°32' W 001°30'0 0.0
2017-Nov-16 18:31N 43°32' W 001°30'0 0.0
2017-Nov-16 18:01N 43°32' W 001°30'0 0.0
2017-Nov-16 17:30N 43°32' W 001°30'0 0.0
2017-Nov-16 17:01N 43°32' W 001°30'0 0.0
2017-Nov-16 16:31N 43°32' W 001°30'0 0.0
2017-Nov-16 16:01N 43°32' W 001°30'0 0.0
2017-Nov-16 15:31N 43°32' W 001°30'0 0.0
2017-Nov-16 15:00N 43°32' W 001°30'0 0.0
2017-Nov-16 14:30N 43°32' W 001°30'0 0.0
2017-Nov-16 14:01N 43°32' W 001°30'0 0.0
2017-Nov-16 13:31N 43°32' W 001°30'0 0.0
2017-Nov-16 13:01N 43°32' W 001°30'0 0.0
2017-Nov-16 12:31N 43°32' W 001°30'0 0.0
2017-Nov-16 12:01N 43°32' W 001°30'0 0.0
2017-Nov-16 11:30N 43°32' W 001°30'0 0.0
2017-Nov-16 11:01N 43°32' W 001°30'0 0.0
2017-Nov-16 10:30N 43°32' W 001°30'0 0.0
2017-Nov-16 10:01N 43°32' W 001°30'0 0.0
2017-Nov-16 09:31N 43°32' W 001°30'0 0.0
2017-Nov-16 09:01N 43°32' W 001°30'0 0.0
2017-Nov-16 08:31N 43°32' W 001°30'0 0.0
2017-Nov-16 08:01N 43°32' W 001°30'0 0.0
2017-Nov-16 07:30N 43°32' W 001°30'0 0.0
2017-Nov-16 07:01N 43°32' W 001°30'0 0.0
2017-Nov-16 06:31N 43°32' W 001°30'0 0.0
2017-Nov-16 05:58N 43°32' W 001°30'0 0.0
2017-Nov-16 05:28N 43°32' W 001°30'0 0.0
2017-Nov-16 05:01N 43°32' W 001°30'0 0.0
2017-Nov-16 04:28N 43°32' W 001°30'0 0.0
2017-Nov-16 04:01N 43°32' W 001°30'0 0.0
2017-Nov-16 03:31N 43°32' W 001°30'0 0.0
2017-Nov-16 03:01N 43°32' W 001°30'0 0.0
2017-Nov-16 02:31N 43°32' W 001°30'0 0.0
2017-Nov-16 02:01N 43°32' W 001°30'0 0.0
2017-Nov-16 01:31N 43°32' W 001°30'0 0.0
2017-Nov-16 01:01N 43°32' W 001°30'0 0.0
2017-Nov-16 00:31N 43°32' W 001°30'0 0.0
2017-Nov-16 00:01N 43°32' W 001°30'0 0.0
2017-Nov-15 23:28N 43°32' W 001°30'0 0.0
2017-Nov-15 22:58N 43°32' W 001°30'0 0.0
2017-Nov-15 22:31N 43°32' W 001°30'0 0.0
2017-Nov-15 21:58N 43°32' W 001°30'0 0.0
2017-Nov-15 21:31N 43°32' W 001°30'0 0.0
2017-Nov-15 20:55N 43°32' W 001°30'0 0.0
2017-Nov-15 20:28N 43°32' W 001°30'0 0.0
2017-Nov-15 19:58N 43°32' W 001°30'0 0.0
2017-Nov-15 19:28N 43°32' W 001°30'0 0.0
2017-Nov-15 18:58N 43°32' W 001°30'0 0.0
2017-Nov-15 18:25N 43°32' W 001°30'0 0.0
2017-Nov-15 17:58N 43°32' W 001°30'0 0.0
2017-Nov-15 17:28N 43°32' W 001°30'0 0.0
2017-Nov-15 16:58N 43°32' W 001°30'0 0.0
2017-Nov-15 16:28N 43°32' W 001°30'0 0.0
2017-Nov-15 15:58N 43°32' W 001°30'0 0.0
2017-Nov-15 15:28N 43°32' W 001°30'0 0.0
2017-Nov-15 14:58N 43°32' W 001°30'0 0.2
2017-Nov-15 14:30N 43°32' W 001°30'3 5.9
2017-Nov-15 14:00N 43°33' W 001°33'1 1.6
2017-Nov-15 13:30N 43°34' W 001°33'0 0.0
2017-Nov-15 13:00N 43°34' W 001°33'0 0.0
2017-Nov-15 12:30N 43°34' W 001°33'0 0.0
2017-Nov-15 12:01N 43°34' W 001°33'0 0.0
2017-Nov-15 11:30N 43°34' W 001°33'0 0.2
2017-Nov-15 11:01N 43°34' W 001°33'0 0.1
2017-Nov-15 10:30N 43°34' W 001°33'4 8.2
2017-Nov-15 10:00N 43°33' W 001°39'511.0
2017-Nov-15 09:30N 43°33' W 001°46'510.8
2017-Nov-15 09:00N 43°33' W 001°54'510.7
2017-Nov-15 08:30N 43°33' W 002°01'510.9
2017-Nov-15 08:00N 43°34' W 002°09'511.0
2017-Nov-15 07:30N 43°35' W 002°16'510.9
2017-Nov-15 07:00N 43°36' W 002°23'510.7
2017-Nov-15 06:30N 43°37' W 002°31'510.4
2017-Nov-15 06:00N 43°38' W 002°38'510.1
2017-Nov-15 05:30N 43°39' W 002°45'510.2
2017-Nov-15 05:00N 43°40' W 002°52'1010.3
2017-Nov-15 04:00N 43°42' W 003°06'  

Dump ship's entire track history